sensor_id;sensor_type;location;lat;lon;timestamp;temperature;humidity
7325;DHT22;3703;48.016;7.802;2023-04-15T00:02:23;10.30;1.00
7325;DHT22;3703;48.016;7.802;2023-04-15T00:05:10;10.20;1.00
7325;DHT22;3703;48.016;7.802;2023-04-15T00:07:58;10.20;1.00
7325;DHT22;3703;48.016;7.802;2023-04-15T00:10:46;10.20;1.00
7325;DHT22;3703;48.016;7.802;2023-04-15T00:13:34;10.20;1.00
7325;DHT22;3703;48.016;7.802;2023-04-15T00:16:21;10.30;1.00
7325;DHT22;3703;48.016;7.802;2023-04-15T00:19:10;10.30;99.90
7325;DHT22;3703;48.016;7.802;2023-04-15T00:21:58;10.30;99.90
7325;DHT22;3703;48.016;7.802;2023-04-15T00:24:46;10.40;99.90
7325;DHT22;3703;48.016;7.802;2023-04-15T00:27:33;10.40;1.00
7325;DHT22;3703;48.016;7.802;2023-04-15T00:30:21;10.60;1.00
7325;DHT22;3703;48.016;7.802;2023-04-15T00:33:09;10.80;1.00
7325;DHT22;3703;48.016;7.802;2023-04-15T00:35:58;10.70;99.90
7325;DHT22;3703;48.016;7.802;2023-04-15T00:38:45;10.70;99.90
7325;DHT22;3703;48.016;7.802;2023-04-15T00:41:33;10.60;99.90
7325;DHT22;3703;48.016;7.802;2023-04-15T00:44:24;10.40;99.90
7325;DHT22;3703;48.016;7.802;2023-04-15T00:47:12;10.30;99.90
7325;DHT22;3703;48.016;7.802;2023-04-15T00:50:00;9.70;99.90
7325;DHT22;3703;48.016;7.802;2023-04-15T00:52:49;10.10;99.90
7325;DHT22;3703;48.016;7.802;2023-04-15T00:55:37;9.80;1.00
7325;DHT22;3703;48.016;7.802;2023-04-15T00:58:25;10.10;99.90
7325;DHT22;3703;48.016;7.802;2023-04-15T01:01:14;10.00;99.90
7325;DHT22;3703;48.016;7.802;2023-04-15T01:04:01;9.90;99.90
7325;DHT22;3703;48.016;7.802;2023-04-15T01:06:49;10.00;99.90
7325;DHT22;3703;48.016;7.802;2023-04-15T01:09:38;10.10;99.90
7325;DHT22;3703;48.016;7.802;2023-04-15T01:12:26;10.10;1.00
7325;DHT22;3703;48.016;7.802;2023-04-15T01:15:14;10.10;99.90
7325;DHT22;3703;48.016;7.802;2023-04-15T01:18:02;10.20;99.90
7325;DHT22;3703;48.016;7.802;2023-04-15T01:20:49;10.20;99.90
7325;DHT22;3703;48.016;7.802;2023-04-15T01:23:37;10.30;99.90
7325;DHT22;3703;48.016;7.802;2023-04-15T01:26:26;10.50;1.00
7325;DHT22;3703;48.016;7.802;2023-04-15T01:29:15;10.60;1.00
7325;DHT22;3703;48.016;7.802;2023-04-15T01:32:04;12.00;99.90
7325;DHT22;3703;48.016;7.802;2023-04-15T01:34:51;10.30;99.90
7325;DHT22;3703;48.016;7.802;2023-04-15T01:37:39;10.00;1.00
7325;DHT22;3703;48.016;7.802;2023-04-15T01:40:26;10.10;99.90
7325;DHT22;3703;48.016;7.802;2023-04-15T01:43:16;9.30;1.00
7325;DHT22;3703;48.016;7.802;2023-04-15T01:46:04;9.50;1.00
7325;DHT22;3703;48.016;7.802;2023-04-15T01:51:39;9.50;12.80
7325;DHT22;3703;48.016;7.802;2023-04-15T01:54:27;9.80;99.90
7325;DHT22;3703;48.016;7.802;2023-04-15T01:57:14;9.70;99.90
7325;DHT22;3703;48.016;7.802;2023-04-15T02:00:04;9.40;99.90
7325;DHT22;3703;48.016;7.802;2023-04-15T02:05:41;9.30;99.90
7325;DHT22;3703;48.016;7.802;2023-04-15T02:14:04;9.60;99.90
7325;DHT22;3703;48.016;7.802;2023-04-15T02:16:53;10.10;99.90
7325;DHT22;3703;48.016;7.802;2023-04-15T02:19:41;9.80;5.10
7325;DHT22;3703;48.016;7.802;2023-04-15T02:22:29;9.90;1.00
7325;DHT22;3703;48.016;7.802;2023-04-15T02:25:16;10.10;1.00
7325;DHT22;3703;48.016;7.802;2023-04-15T02:28:05;10.30;1.00
7325;DHT22;3703;48.016;7.802;2023-04-15T02:33:43;9.80;1.00
7325;DHT22;3703;48.016;7.802;2023-04-15T02:42:07;9.10;1.00
7325;DHT22;3703;48.016;7.802;2023-04-15T02:50:33;9.40;99.90
7325;DHT22;3703;48.016;7.802;2023-04-15T02:53:21;9.60;99.90
7325;DHT22;3703;48.016;7.802;2023-04-15T02:56:08;9.90;99.90
7325;DHT22;3703;48.016;7.802;2023-04-15T02:58:56;10.10;22.30
7325;DHT22;3703;48.016;7.802;2023-04-15T03:01:44;10.20;1.00
7325;DHT22;3703;48.016;7.802;2023-04-15T03:04:31;10.20;99.90
7325;DHT22;3703;48.016;7.802;2023-04-15T03:07:20;10.20;58.30
7325;DHT22;3703;48.016;7.802;2023-04-15T03:10:08;10.30;1.00
7325;DHT22;3703;48.016;7.802;2023-04-15T03:12:56;10.90;99.90
7325;DHT22;3703;48.016;7.802;2023-04-15T03:15:45;10.60;15.70
7325;DHT22;3703;48.016;7.802;2023-04-15T03:18:33;10.50;1.00
7325;DHT22;3703;48.016;7.802;2023-04-15T03:21:20;10.40;1.00
7325;DHT22;3703;48.016;7.802;2023-04-15T03:24:10;10.30;1.00
7325;DHT22;3703;48.016;7.802;2023-04-15T03:26:57;10.80;13.80
7325;DHT22;3703;48.016;7.802;2023-04-15T03:29:46;10.40;1.00
7325;DHT22;3703;48.016;7.802;2023-04-15T03:32:33;10.50;1.00
7325;DHT22;3703;48.016;7.802;2023-04-15T03:35:21;10.50;1.00
7325;DHT22;3703;48.016;7.802;2023-04-15T03:38:08;10.70;1.00
7325;DHT22;3703;48.016;7.802;2023-04-15T03:40:57;10.60;1.00
7325;DHT22;3703;48.016;7.802;2023-04-15T03:43:44;10.70;1.00
7325;DHT22;3703;48.016;7.802;2023-04-15T03:46:32;10.60;1.00
7325;DHT22;3703;48.016;7.802;2023-04-15T03:49:19;10.50;1.00
7325;DHT22;3703;48.016;7.802;2023-04-15T03:52:08;10.70;1.00
7325;DHT22;3703;48.016;7.802;2023-04-15T03:54:55;11.00;1.00
7325;DHT22;3703;48.016;7.802;2023-04-15T03:57:44;10.70;1.00
7325;DHT22;3703;48.016;7.802;2023-04-15T04:00:31;10.70;99.90
7325;DHT22;3703;48.016;7.802;2023-04-15T04:03:19;10.80;99.90
7325;DHT22;3703;48.016;7.802;2023-04-15T04:06:06;10.70;1.00
7325;DHT22;3703;48.016;7.802;2023-04-15T04:08:55;10.90;1.00
7325;DHT22;3703;48.016;7.802;2023-04-15T04:11:42;10.80;1.00
7325;DHT22;3703;48.016;7.802;2023-04-15T04:14:32;10.80;99.90
7325;DHT22;3703;48.016;7.802;2023-04-15T04:17:19;10.70;99.90
7325;DHT22;3703;48.016;7.802;2023-04-15T04:20:07;10.50;99.90
7325;DHT22;3703;48.016;7.802;2023-04-15T04:25:44;9.60;99.90
7325;DHT22;3703;48.016;7.802;2023-04-15T04:28:31;9.20;99.90
7325;DHT22;3703;48.016;7.802;2023-04-15T04:31:21;9.00;99.90
7325;DHT22;3703;48.016;7.802;2023-04-15T04:34:09;9.80;99.90
7325;DHT22;3703;48.016;7.802;2023-04-15T04:36:56;9.60;99.90
7325;DHT22;3703;48.016;7.802;2023-04-15T04:39:44;9.80;99.90
7325;DHT22;3703;48.016;7.802;2023-04-15T04:42:31;9.90;99.90
7325;DHT22;3703;48.016;7.802;2023-04-15T04:48:08;9.70;99.90
7325;DHT22;3703;48.016;7.802;2023-04-15T04:50:55;9.90;27.40
7325;DHT22;3703;48.016;7.802;2023-04-15T04:53:43;10.00;1.00
7325;DHT22;3703;48.016;7.802;2023-04-15T04:56:31;10.10;1.00
7325;DHT22;3703;48.016;7.802;2023-04-15T04:59:19;10.40;99.90
7325;DHT22;3703;48.016;7.802;2023-04-15T05:02:06;10.40;99.90
7325;DHT22;3703;48.016;7.802;2023-04-15T05:04:55;10.40;99.90
7325;DHT22;3703;48.016;7.802;2023-04-15T05:07:43;10.20;1.00
7325;DHT22;3703;48.016;7.802;2023-04-15T05:10:30;10.40;99.90
7325;DHT22;3703;48.016;7.802;2023-04-15T05:13:18;10.50;99.90
7325;DHT22;3703;48.016;7.802;2023-04-15T05:16:06;10.50;1.00
7325;DHT22;3703;48.016;7.802;2023-04-15T05:18:54;10.50;1.00
7325;DHT22;3703;48.016;7.802;2023-04-15T05:21:43;10.30;1.00
7325;DHT22;3703;48.016;7.802;2023-04-15T05:24:31;10.20;1.00
7325;DHT22;3703;48.016;7.802;2023-04-15T05:27:18;10.00;1.00
7325;DHT22;3703;48.016;7.802;2023-04-15T05:30:08;10.00;79.20
7325;DHT22;3703;48.016;7.802;2023-04-15T05:32:55;9.80;1.00
7325;DHT22;3703;48.016;7.802;2023-04-15T05:35:43;10.30;1.00
7325;DHT22;3703;48.016;7.802;2023-04-15T05:38:32;10.50;1.00
7325;DHT22;3703;48.016;7.802;2023-04-15T05:41:20;11.00;99.90
7325;DHT22;3703;48.016;7.802;2023-04-15T05:44:07;10.20;99.90
7325;DHT22;3703;48.016;7.802;2023-04-15T05:46:55;10.10;99.90
7325;DHT22;3703;48.016;7.802;2023-04-15T05:49:42;9.90;99.90
7325;DHT22;3703;48.016;7.802;2023-04-15T05:52:30;9.50;99.90
7325;DHT22;3703;48.016;7.802;2023-04-15T05:55:19;9.70;99.90
7325;DHT22;3703;48.016;7.802;2023-04-15T05:58:07;10.20;99.90
7325;DHT22;3703;48.016;7.802;2023-04-15T06:00:54;10.60;94.50
7325;DHT22;3703;48.016;7.802;2023-04-15T06:03:42;10.60;99.90
7325;DHT22;3703;48.016;7.802;2023-04-15T06:06:30;10.70;1.00
7325;DHT22;3703;48.016;7.802;2023-04-15T06:09:17;10.60;1.00
7325;DHT22;3703;48.016;7.802;2023-04-15T06:12:06;11.00;99.90
7325;DHT22;3703;48.016;7.802;2023-04-15T06:14:56;11.30;99.90
7325;DHT22;3703;48.016;7.802;2023-04-15T06:17:44;11.40;99.90
7325;DHT22;3703;48.016;7.802;2023-04-15T06:20:32;11.60;1.00
7325;DHT22;3703;48.016;7.802;2023-04-15T06:23:19;11.60;1.00
7325;DHT22;3703;48.016;7.802;2023-04-15T06:26:07;11.80;99.90
7325;DHT22;3703;48.016;7.802;2023-04-15T06:28:56;11.70;1.00
7325;DHT22;3703;48.016;7.802;2023-04-15T06:31:43;11.80;1.00
7325;DHT22;3703;48.016;7.802;2023-04-15T06:34:30;11.60;1.00
7325;DHT22;3703;48.016;7.802;2023-04-15T06:37:18;11.60;1.00
7325;DHT22;3703;48.016;7.802;2023-04-15T06:40:07;11.50;99.90
7325;DHT22;3703;48.016;7.802;2023-04-15T06:42:55;11.20;99.90
7325;DHT22;3703;48.016;7.802;2023-04-15T06:45:44;11.50;1.00
7325;DHT22;3703;48.016;7.802;2023-04-15T06:48:32;11.10;1.00
7325;DHT22;3703;48.016;7.802;2023-04-15T06:51:19;11.00;1.00
7325;DHT22;3703;48.016;7.802;2023-04-15T06:54:06;11.30;1.00
7325;DHT22;3703;48.016;7.802;2023-04-15T06:56:54;11.20;1.00
7325;DHT22;3703;48.016;7.802;2023-04-15T06:59:41;11.60;1.00
7325;DHT22;3703;48.016;7.802;2023-04-15T07:02:30;11.80;1.00
7325;DHT22;3703;48.016;7.802;2023-04-15T07:05:18;11.80;99.90
7325;DHT22;3703;48.016;7.802;2023-04-15T07:08:05;11.90;99.90
7325;DHT22;3703;48.016;7.802;2023-04-15T07:10:53;11.80;99.90
7325;DHT22;3703;48.016;7.802;2023-04-15T07:13:42;11.50;1.00
7325;DHT22;3703;48.016;7.802;2023-04-15T07:16:29;11.10;99.90
7325;DHT22;3703;48.016;7.802;2023-04-15T07:19:18;10.60;99.90
7325;DHT22;3703;48.016;7.802;2023-04-15T07:22:06;10.90;99.90
7325;DHT22;3703;48.016;7.802;2023-04-15T07:24:54;10.70;99.90
7325;DHT22;3703;48.016;7.802;2023-04-15T07:27:41;10.70;1.00
7325;DHT22;3703;48.016;7.802;2023-04-15T07:30:29;10.70;1.00
7325;DHT22;3703;48.016;7.802;2023-04-15T07:33:16;11.00;1.00
7325;DHT22;3703;48.016;7.802;2023-04-15T07:36:05;11.10;99.90
7325;DHT22;3703;48.016;7.802;2023-04-15T07:38:53;11.20;99.90
7325;DHT22;3703;48.016;7.802;2023-04-15T07:41:40;10.80;99.90
7325;DHT22;3703;48.016;7.802;2023-04-15T07:44:28;10.60;1.00
7325;DHT22;3703;48.016;7.802;2023-04-15T07:47:16;10.50;1.00
7325;DHT22;3703;48.016;7.802;2023-04-15T07:50:04;10.60;1.00
7325;DHT22;3703;48.016;7.802;2023-04-15T07:52:53;11.40;99.90
7325;DHT22;3703;48.016;7.802;2023-04-15T07:55:41;11.50;99.90
7325;DHT22;3703;48.016;7.802;2023-04-15T07:58:28;11.80;99.90
7325;DHT22;3703;48.016;7.802;2023-04-15T08:01:16;11.80;99.90
7325;DHT22;3703;48.016;7.802;2023-04-15T08:04:04;11.70;99.90
7325;DHT22;3703;48.016;7.802;2023-04-15T08:06:51;11.70;99.90
7325;DHT22;3703;48.016;7.802;2023-04-15T08:09:41;11.50;99.90
7325;DHT22;3703;48.016;7.802;2023-04-15T08:12:28;12.80;99.90
7325;DHT22;3703;48.016;7.802;2023-04-15T08:15:16;11.40;99.90
7325;DHT22;3703;48.016;7.802;2023-04-15T08:18:04;11.70;1.00
7325;DHT22;3703;48.016;7.802;2023-04-15T08:20:51;11.90;99.90
7325;DHT22;3703;48.016;7.802;2023-04-15T08:23:39;12.40;99.90
7325;DHT22;3703;48.016;7.802;2023-04-15T08:26:29;12.90;90.30
7325;DHT22;3703;48.016;7.802;2023-04-15T08:29:16;13.40;1.00
7325;DHT22;3703;48.016;7.802;2023-04-15T08:32:05;13.50;1.00
7325;DHT22;3703;48.016;7.802;2023-04-15T08:34:53;13.50;1.00
7325;DHT22;3703;48.016;7.802;2023-04-15T08:37:40;13.50;99.90
7325;DHT22;3703;48.016;7.802;2023-04-15T08:40:34;13.50;99.90
7325;DHT22;3703;48.016;7.802;2023-04-15T08:43:33;14.30;1.00
7325;DHT22;3703;48.016;7.802;2023-04-15T08:46:21;13.70;1.00
7325;DHT22;3703;48.016;7.802;2023-04-15T08:49:10;13.60;99.90
7325;DHT22;3703;48.016;7.802;2023-04-15T08:51:59;13.60;99.90
7325;DHT22;3703;48.016;7.802;2023-04-15T08:54:47;13.70;1.00
7325;DHT22;3703;48.016;7.802;2023-04-15T08:57:36;13.90;99.90
7325;DHT22;3703;48.016;7.802;2023-04-15T09:00:26;13.80;1.00
7325;DHT22;3703;48.016;7.802;2023-04-15T09:03:14;13.40;99.90
7325;DHT22;3703;48.016;7.802;2023-04-15T09:06:04;13.40;99.90
7325;DHT22;3703;48.016;7.802;2023-04-15T09:08:52;13.90;10.10
7325;DHT22;3703;48.016;7.802;2023-04-15T09:11:39;14.40;99.90
7325;DHT22;3703;48.016;7.802;2023-04-15T09:14:28;14.40;1.00
7325;DHT22;3703;48.016;7.802;2023-04-15T09:17:19;14.60;1.00
7325;DHT22;3703;48.016;7.802;2023-04-15T09:20:08;14.60;1.00
7325;DHT22;3703;48.016;7.802;2023-04-15T09:22:58;14.60;1.00
7325;DHT22;3703;48.016;7.802;2023-04-15T09:25:45;13.60;99.90
7325;DHT22;3703;48.016;7.802;2023-04-15T09:28:40;14.70;99.90
7325;DHT22;3703;48.016;7.802;2023-04-15T09:31:29;14.70;1.00
7325;DHT22;3703;48.016;7.802;2023-04-15T09:34:18;14.70;1.00
7325;DHT22;3703;48.016;7.802;2023-04-15T09:37:06;15.10;99.90
7325;DHT22;3703;48.016;7.802;2023-04-15T09:39:55;15.30;99.90
7325;DHT22;3703;48.016;7.802;2023-04-15T09:42:55;15.60;55.90
7325;DHT22;3703;48.016;7.802;2023-04-15T09:45:47;16.10;99.90
7325;DHT22;3703;48.016;7.802;2023-04-15T09:48:35;16.60;1.00
7325;DHT22;3703;48.016;7.802;2023-04-15T09:51:33;17.10;1.00
7325;DHT22;3703;48.016;7.802;2023-04-15T09:54:21;17.70;99.90
7325;DHT22;3703;48.016;7.802;2023-04-15T09:57:09;18.20;1.00
7325;DHT22;3703;48.016;7.802;2023-04-15T09:59:57;18.60;1.00
7325;DHT22;3703;48.016;7.802;2023-04-15T10:02:46;18.60;1.00
7325;DHT22;3703;48.016;7.802;2023-04-15T10:05:36;18.60;99.90
7325;DHT22;3703;48.016;7.802;2023-04-15T10:08:27;18.30;99.90
7325;DHT22;3703;48.016;7.802;2023-04-15T10:11:17;17.90;1.00
7325;DHT22;3703;48.016;7.802;2023-04-15T10:14:07;18.20;99.90
7325;DHT22;3703;48.016;7.802;2023-04-15T10:16:56;17.70;1.00
7325;DHT22;3703;48.016;7.802;2023-04-15T10:19:45;17.80;1.00
7325;DHT22;3703;48.016;7.802;2023-04-15T10:22:34;17.60;99.90
7325;DHT22;3703;48.016;7.802;2023-04-15T10:25:25;17.60;99.90
7325;DHT22;3703;48.016;7.802;2023-04-15T10:28:14;17.70;1.00
7325;DHT22;3703;48.016;7.802;2023-04-15T10:31:04;17.90;99.90
7325;DHT22;3703;48.016;7.802;2023-04-15T10:33:52;18.40;99.90
7325;DHT22;3703;48.016;7.802;2023-04-15T10:36:40;18.70;1.00
7325;DHT22;3703;48.016;7.802;2023-04-15T10:39:41;18.50;99.90
7325;DHT22;3703;48.016;7.802;2023-04-15T10:42:34;18.40;99.90
7325;DHT22;3703;48.016;7.802;2023-04-15T10:45:21;18.40;99.90
7325;DHT22;3703;48.016;7.802;2023-04-15T10:48:15;18.00;1.00
7325;DHT22;3703;48.016;7.802;2023-04-15T10:51:03;16.60;1.00
7325;DHT22;3703;48.016;7.802;2023-04-15T10:53:55;16.70;1.00
7325;DHT22;3703;48.016;7.802;2023-04-15T10:56:44;17.10;99.90
7325;DHT22;3703;48.016;7.802;2023-04-15T10:59:36;16.90;99.90
7325;DHT22;3703;48.016;7.802;2023-04-15T11:02:37;17.30;1.00
7325;DHT22;3703;48.016;7.802;2023-04-15T11:05:47;18.30;32.30
7325;DHT22;3703;48.016;7.802;2023-04-15T11:08:56;19.20;1.00
7325;DHT22;3703;48.016;7.802;2023-04-15T11:12:06;20.10;99.90
7325;DHT22;3703;48.016;7.802;2023-04-15T11:14:56;20.10;1.00
7325;DHT22;3703;48.016;7.802;2023-04-15T11:17:44;18.10;99.90
7325;DHT22;3703;48.016;7.802;2023-04-15T11:20:31;18.50;1.00
7325;DHT22;3703;48.016;7.802;2023-04-15T11:23:26;18.00;1.00
7325;DHT22;3703;48.016;7.802;2023-04-15T11:26:15;18.20;1.00
7325;DHT22;3703;48.016;7.802;2023-04-15T11:29:03;18.20;1.00
7325;DHT22;3703;48.016;7.802;2023-04-15T11:31:51;18.00;1.00
7325;DHT22;3703;48.016;7.802;2023-04-15T11:34:39;17.90;1.00
7325;DHT22;3703;48.016;7.802;2023-04-15T11:37:28;17.70;1.00
7325;DHT22;3703;48.016;7.802;2023-04-15T11:40:19;17.70;1.00
7325;DHT22;3703;48.016;7.802;2023-04-15T11:43:10;17.70;1.00
7325;DHT22;3703;48.016;7.802;2023-04-15T11:46:00;17.70;37.40
7325;DHT22;3703;48.016;7.802;2023-04-15T11:48:50;17.70;34.60
7325;DHT22;3703;48.016;7.802;2023-04-15T11:51:37;17.30;99.90
7325;DHT22;3703;48.016;7.802;2023-04-15T11:54:25;17.20;99.90
7325;DHT22;3703;48.016;7.802;2023-04-15T11:57:12;17.10;99.90
7325;DHT22;3703;48.016;7.802;2023-04-15T12:00:00;16.90;79.30
7325;DHT22;3703;48.016;7.802;2023-04-15T12:03:10;17.00;1.00
7325;DHT22;3703;48.016;7.802;2023-04-15T12:06:11;16.70;1.00
7325;DHT22;3703;48.016;7.802;2023-04-15T12:09:06;16.90;1.00
7325;DHT22;3703;48.016;7.802;2023-04-15T12:11:56;17.10;1.00
7325;DHT22;3703;48.016;7.802;2023-04-15T12:14:44;16.90;1.00
7325;DHT22;3703;48.016;7.802;2023-04-15T12:17:33;17.10;1.00
7325;DHT22;3703;48.016;7.802;2023-04-15T12:20:24;17.00;1.00
7325;DHT22;3703;48.016;7.802;2023-04-15T12:23:18;16.90;1.00
7325;DHT22;3703;48.016;7.802;2023-04-15T12:26:06;16.70;1.00
7325;DHT22;3703;48.016;7.802;2023-04-15T12:28:53;16.80;1.00
7325;DHT22;3703;48.016;7.802;2023-04-15T12:31:50;17.10;1.00
7325;DHT22;3703;48.016;7.802;2023-04-15T12:34:40;17.20;1.00
7325;DHT22;3703;48.016;7.802;2023-04-15T12:37:28;17.60;1.00
7325;DHT22;3703;48.016;7.802;2023-04-15T12:40:18;18.10;1.00
7325;DHT22;3703;48.016;7.802;2023-04-15T12:43:06;18.70;1.00
7325;DHT22;3703;48.016;7.802;2023-04-15T12:45:53;19.50;99.90
7325;DHT22;3703;48.016;7.802;2023-04-15T12:48:41;19.50;99.90
7325;DHT22;3703;48.016;7.802;2023-04-15T12:51:28;18.20;99.90
7325;DHT22;3703;48.016;7.802;2023-04-15T12:54:16;18.60;99.90
7325;DHT22;3703;48.016;7.802;2023-04-15T12:57:06;19.40;99.90
7325;DHT22;3703;48.016;7.802;2023-04-15T12:59:53;19.50;99.90
7325;DHT22;3703;48.016;7.802;2023-04-15T13:02:42;19.60;89.10
7325;DHT22;3703;48.016;7.802;2023-04-15T13:05:30;19.90;51.10
7325;DHT22;3703;48.016;7.802;2023-04-15T13:08:17;20.60;99.90
7325;DHT22;3703;48.016;7.802;2023-04-15T13:11:05;20.80;29.20
7325;DHT22;3703;48.016;7.802;2023-04-15T13:13:55;20.60;1.00
7325;DHT22;3703;48.016;7.802;2023-04-15T13:16:42;20.50;1.00
7325;DHT22;3703;48.016;7.802;2023-04-15T13:19:30;20.10;1.00
7325;DHT22;3703;48.016;7.802;2023-04-15T13:22:18;19.80;1.00
7325;DHT22;3703;48.016;7.802;2023-04-15T13:25:06;19.50;1.00
7325;DHT22;3703;48.016;7.802;2023-04-15T13:27:54;19.40;1.00
7325;DHT22;3703;48.016;7.802;2023-04-15T13:30:43;19.50;1.00
7325;DHT22;3703;48.016;7.802;2023-04-15T13:33:33;19.60;1.00
7325;DHT22;3703;48.016;7.802;2023-04-15T13:36:21;19.20;1.00
7325;DHT22;3703;48.016;7.802;2023-04-15T13:39:08;19.40;1.00
7325;DHT22;3703;48.016;7.802;2023-04-15T13:41:56;20.20;1.00
7325;DHT22;3703;48.016;7.802;2023-04-15T13:44:43;20.90;1.00
7325;DHT22;3703;48.016;7.802;2023-04-15T13:47:32;20.90;1.00
7325;DHT22;3703;48.016;7.802;2023-04-15T13:50:20;20.90;1.00
7325;DHT22;3703;48.016;7.802;2023-04-15T13:53:08;20.50;1.00
7325;DHT22;3703;48.016;7.802;2023-04-15T13:55:55;20.10;99.90
7325;DHT22;3703;48.016;7.802;2023-04-15T13:58:43;20.30;99.90
7325;DHT22;3703;48.016;7.802;2023-04-15T14:01:30;21.60;99.90
7325;DHT22;3703;48.016;7.802;2023-04-15T14:04:19;21.90;99.90
7325;DHT22;3703;48.016;7.802;2023-04-15T14:07:07;20.70;99.90
7325;DHT22;3703;48.016;7.802;2023-04-15T14:09:54;20.40;99.90
7325;DHT22;3703;48.016;7.802;2023-04-15T14:12:42;20.20;99.90
7325;DHT22;3703;48.016;7.802;2023-04-15T14:15:29;20.80;99.90
7325;DHT22;3703;48.016;7.802;2023-04-15T14:18:17;20.20;99.90
7325;DHT22;3703;48.016;7.802;2023-04-15T14:21:06;19.80;99.90
7325;DHT22;3703;48.016;7.802;2023-04-15T14:23:53;19.20;99.90
7325;DHT22;3703;48.016;7.802;2023-04-15T14:26:42;19.20;1.00
7325;DHT22;3703;48.016;7.802;2023-04-15T14:29:29;17.40;1.00
7325;DHT22;3703;48.016;7.802;2023-04-15T14:32:17;16.50;19.90
7325;DHT22;3703;48.016;7.802;2023-04-15T14:35:05;16.40;99.90
7325;DHT22;3703;48.016;7.802;2023-04-15T14:37:54;16.30;1.00
7325;DHT22;3703;48.016;7.802;2023-04-15T14:40:42;16.30;99.90
7325;DHT22;3703;48.016;7.802;2023-04-15T14:43:30;17.20;1.00
7325;DHT22;3703;48.016;7.802;2023-04-15T14:46:18;16.50;1.00
7325;DHT22;3703;48.016;7.802;2023-04-15T14:49:05;16.80;1.00
7325;DHT22;3703;48.016;7.802;2023-04-15T14:51:53;17.00;1.00
7325;DHT22;3703;48.016;7.802;2023-04-15T14:54:41;17.20;1.00
7325;DHT22;3703;48.016;7.802;2023-04-15T14:57:29;16.40;99.90
7325;DHT22;3703;48.016;7.802;2023-04-15T15:00:16;16.50;1.00
7325;DHT22;3703;48.016;7.802;2023-04-15T15:03:04;16.90;55.70
7325;DHT22;3703;48.016;7.802;2023-04-15T15:05:57;17.70;1.00
7325;DHT22;3703;48.016;7.802;2023-04-15T15:08:45;16.40;1.00
7325;DHT22;3703;48.016;7.802;2023-04-15T15:11:34;16.50;1.00
7325;DHT22;3703;48.016;7.802;2023-04-15T15:14:21;16.70;1.00
7325;DHT22;3703;48.016;7.802;2023-04-15T15:17:09;17.10;99.90
7325;DHT22;3703;48.016;7.802;2023-04-15T15:19:57;16.80;99.90
7325;DHT22;3703;48.016;7.802;2023-04-15T15:22:44;16.60;99.90
7325;DHT22;3703;48.016;7.802;2023-04-15T15:25:32;16.40;99.90
7325;DHT22;3703;48.016;7.802;2023-04-15T15:28:20;16.10;1.00
7325;DHT22;3703;48.016;7.802;2023-04-15T15:31:08;16.40;3.10
7325;DHT22;3703;48.016;7.802;2023-04-15T15:33:55;16.10;1.00
7325;DHT22;3703;48.016;7.802;2023-04-15T15:36:43;15.90;55.50
7325;DHT22;3703;48.016;7.802;2023-04-15T15:39:30;15.40;1.00
7325;DHT22;3703;48.016;7.802;2023-04-15T15:42:18;15.80;19.00
7325;DHT22;3703;48.016;7.802;2023-04-15T15:45:08;15.70;1.00
7325;DHT22;3703;48.016;7.802;2023-04-15T15:47:56;15.80;46.40
7325;DHT22;3703;48.016;7.802;2023-04-15T15:50:44;15.90;1.00
7325;DHT22;3703;48.016;7.802;2023-04-15T15:53:32;16.00;62.70
7325;DHT22;3703;48.016;7.802;2023-04-15T15:56:20;16.10;1.00
7325;DHT22;3703;48.016;7.802;2023-04-15T15:59:08;16.00;1.00
7325;DHT22;3703;48.016;7.802;2023-04-15T16:01:56;15.90;9.10
7325;DHT22;3703;48.016;7.802;2023-04-15T16:04:44;15.60;99.90
7325;DHT22;3703;48.016;7.802;2023-04-15T16:07:31;15.40;1.00
7325;DHT22;3703;48.016;7.802;2023-04-15T16:10:19;15.20;99.90
7325;DHT22;3703;48.016;7.802;2023-04-15T16:13:06;15.10;1.00
7325;DHT22;3703;48.016;7.802;2023-04-15T16:15:55;15.00;99.90
7325;DHT22;3703;48.016;7.802;2023-04-15T16:18:44;14.70;1.00
7325;DHT22;3703;48.016;7.802;2023-04-15T16:21:31;14.70;99.50
7325;DHT22;3703;48.016;7.802;2023-04-15T16:24:20;14.50;1.00
7325;DHT22;3703;48.016;7.802;2023-04-15T16:27:07;14.50;1.00
7325;DHT22;3703;48.016;7.802;2023-04-15T16:29:59;14.50;1.00
7325;DHT22;3703;48.016;7.802;2023-04-15T16:32:47;14.50;1.00
7325;DHT22;3703;48.016;7.802;2023-04-15T16:35:35;14.60;1.00
7325;DHT22;3703;48.016;7.802;2023-04-15T16:38:23;14.70;99.90
7325;DHT22;3703;48.016;7.802;2023-04-15T16:41:10;15.00;1.00
7325;DHT22;3703;48.016;7.802;2023-04-15T16:43:58;15.10;29.10
7325;DHT22;3703;48.016;7.802;2023-04-15T16:46:46;14.90;2.30
7325;DHT22;3703;48.016;7.802;2023-04-15T16:49:33;14.70;99.90
7325;DHT22;3703;48.016;7.802;2023-04-15T16:52:22;14.70;99.90
7325;DHT22;3703;48.016;7.802;2023-04-15T16:55:09;14.80;99.90
7325;DHT22;3703;48.016;7.802;2023-04-15T16:57:57;14.50;99.90
7325;DHT22;3703;48.016;7.802;2023-04-15T17:00:44;14.40;1.00
7325;DHT22;3703;48.016;7.802;2023-04-15T17:03:32;14.40;99.90
7325;DHT22;3703;48.016;7.802;2023-04-15T17:06:19;14.50;99.90
7325;DHT22;3703;48.016;7.802;2023-04-15T17:09:08;14.30;1.00
7325;DHT22;3703;48.016;7.802;2023-04-15T17:11:55;14.40;1.00
7325;DHT22;3703;48.016;7.802;2023-04-15T17:14:43;14.10;99.90
7325;DHT22;3703;48.016;7.802;2023-04-15T17:17:30;14.10;1.00
7325;DHT22;3703;48.016;7.802;2023-04-15T17:20:18;14.00;99.90
7325;DHT22;3703;48.016;7.802;2023-04-15T17:23:06;14.00;1.00
7325;DHT22;3703;48.016;7.802;2023-04-15T17:25:55;14.10;99.90
7325;DHT22;3703;48.016;7.802;2023-04-15T17:28:42;14.20;99.90
7325;DHT22;3703;48.016;7.802;2023-04-15T17:31:30;14.30;99.90
7325;DHT22;3703;48.016;7.802;2023-04-15T17:34:18;14.10;1.00
7325;DHT22;3703;48.016;7.802;2023-04-15T17:37:05;13.90;1.00
7325;DHT22;3703;48.016;7.802;2023-04-15T17:39:53;13.90;82.60
7325;DHT22;3703;48.016;7.802;2023-04-15T17:42:42;13.80;99.90
7325;DHT22;3703;48.016;7.802;2023-04-15T17:45:30;13.90;99.10
7325;DHT22;3703;48.016;7.802;2023-04-15T17:48:17;14.00;24.80
7325;DHT22;3703;48.016;7.802;2023-04-15T17:51:05;13.70;99.90
7325;DHT22;3703;48.016;7.802;2023-04-15T17:53:53;13.80;99.90
7325;DHT22;3703;48.016;7.802;2023-04-15T17:56:41;13.80;99.90
7325;DHT22;3703;48.016;7.802;2023-04-15T17:59:30;13.80;99.90
7325;DHT22;3703;48.016;7.802;2023-04-15T18:02:18;13.70;99.90
7325;DHT22;3703;48.016;7.802;2023-04-15T18:05:06;13.50;99.90
7325;DHT22;3703;48.016;7.802;2023-04-15T18:07:54;13.40;99.90
7325;DHT22;3703;48.016;7.802;2023-04-15T18:10:41;13.30;99.90
7325;DHT22;3703;48.016;7.802;2023-04-15T18:13:29;13.50;99.90
7325;DHT22;3703;48.016;7.802;2023-04-15T18:16:18;13.40;99.90
7325;DHT22;3703;48.016;7.802;2023-04-15T18:19:06;13.20;99.90
7325;DHT22;3703;48.016;7.802;2023-04-15T18:21:53;13.00;99.90
7325;DHT22;3703;48.016;7.802;2023-04-15T18:24:41;13.20;99.90
7325;DHT22;3703;48.016;7.802;2023-04-15T18:27:28;13.10;99.90
7325;DHT22;3703;48.016;7.802;2023-04-15T18:30:16;13.00;99.90
7325;DHT22;3703;48.016;7.802;2023-04-15T18:33:05;12.90;99.90
7325;DHT22;3703;48.016;7.802;2023-04-15T18:35:53;13.00;99.90
7325;DHT22;3703;48.016;7.802;2023-04-15T18:38:43;12.80;99.90
7325;DHT22;3703;48.016;7.802;2023-04-15T18:41:31;12.90;99.90
7325;DHT22;3703;48.016;7.802;2023-04-15T18:44:19;13.20;99.90
7325;DHT22;3703;48.016;7.802;2023-04-15T18:47:06;13.60;99.90
7325;DHT22;3703;48.016;7.802;2023-04-15T18:49:55;14.10;1.00
7325;DHT22;3703;48.016;7.802;2023-04-15T18:52:44;14.30;1.00
7325;DHT22;3703;48.016;7.802;2023-04-15T18:55:31;14.30;1.00
7325;DHT22;3703;48.016;7.802;2023-04-15T18:58:19;14.50;1.00
7325;DHT22;3703;48.016;7.802;2023-04-15T19:01:06;14.80;37.60